KCDN/CDN METAR and TAF weather

Enter ICAO airport designator
Station Type Date Time Source
KCDN METAR 2018/04/19 13:15 UTC NOAA

KCDN 191315Z AUTO 23015G22KT 9SM CLR 22/14 A2986 RMK AO2


Station Type Date Time Source
KCDN Decoded METAR 2018/04/19 13:15 UTC NOAA

Station name not available
Apr 19, 2018 - 09:15 AM EDT / 2018.04.19 1315 UTC
Wind: from the SW (230 degrees) at 17 MPH (15 KT) gusting to 25 MPH (22 KT):0
Visibility: 9 mile(s):0
Sky conditions: clear
Temperature: 71 F (22 C)
Dew Point: 57 F (14 C)
Relative Humidity: 60%
Pressure (altimeter): 29.86 in. Hg (1011 hPa)
ob: KCDN 191315Z AUTO 23015G22KT 9SM CLR 22/14 A2986 RMK AO2
cycle: 13

Station Type Date Time Source
KCDN TAF UTC NOAA

Error!


Example: see airport list